sensor_id;sensor_type;location;lat;lon;timestamp;P1;durP1;ratioP1;P2;durP2;ratioP2
33730;SDS011;22931;48.636;9.000;2023-06-26T09:32:02;4.95;;;3.08;;
33730;SDS011;22931;48.636;9.000;2023-06-26T09:37:14;2.67;;;2.40;;
33730;SDS011;22931;48.636;9.000;2023-06-26T09:42:29;2.90;;;2.58;;
33730;SDS011;22931;48.636;9.000;2023-06-26T09:47:53;3.42;;;2.67;;
33730;SDS011;22931;48.636;9.000;2023-06-26T09:53:16;2.97;;;2.67;;
33730;SDS011;22931;48.636;9.000;2023-06-26T09:58:37;3.85;;;3.20;;
33730;SDS011;22931;48.636;9.000;2023-06-26T10:09:20;3.22;;;2.92;;
33730;SDS011;22931;48.636;9.000;2023-06-26T10:15:12;5.28;;;3.03;;
33730;SDS011;22931;48.636;9.000;2023-06-26T10:20:39;3.80;;;3.38;;
33730;SDS011;22931;48.636;9.000;2023-06-26T10:26:00;3.42;;;3.13;;
33730;SDS011;22931;48.636;9.000;2023-06-26T10:31:37;4.22;;;3.20;;
33730;SDS011;22931;48.636;9.000;2023-06-26T10:37:05;3.67;;;3.33;;
33730;SDS011;22931;48.636;9.000;2023-06-26T10:42:34;4.03;;;3.30;;
33730;SDS011;22931;48.636;9.000;2023-06-26T10:48:09;7.07;;;3.10;;
33730;SDS011;22931;48.636;9.000;2023-06-26T10:53:56;3.50;;;3.20;;
33730;SDS011;22931;48.636;9.000;2023-06-26T10:59:24;4.00;;;3.35;;
33730;SDS011;22931;48.636;9.000;2023-06-26T11:11:17;6.90;;;3.97;;
33730;SDS011;22931;48.636;9.000;2023-06-26T11:17:08;7.00;;;4.20;;
33730;SDS011;22931;48.636;9.000;2023-06-26T11:22:46;4.47;;;3.97;;
33730;SDS011;22931;48.636;9.000;2023-06-26T11:28:38;3.92;;;3.53;;
33730;SDS011;22931;48.636;9.000;2023-06-26T11:39:57;4.32;;;3.78;;
33730;SDS011;22931;48.636;9.000;2023-06-26T11:45:28;5.13;;;4.22;;
33730;SDS011;22931;48.636;9.000;2023-06-26T11:50:52;4.72;;;4.15;;
33730;SDS011;22931;48.636;9.000;2023-06-26T11:56:22;4.25;;;3.78;;
33730;SDS011;22931;48.636;9.000;2023-06-26T12:01:43;3.92;;;3.50;;
33730;SDS011;22931;48.636;9.000;2023-06-26T12:07:07;3.55;;;3.22;;
33730;SDS011;22931;48.636;9.000;2023-06-26T12:12:22;3.92;;;3.38;;
33730;SDS011;22931;48.636;9.000;2023-06-26T12:17:51;5.90;;;3.13;;
33730;SDS011;22931;48.636;9.000;2023-06-26T12:23:11;3.85;;;3.25;;
33730;SDS011;22931;48.636;9.000;2023-06-26T12:29:01;4.28;;;3.53;;
33730;SDS011;22931;48.636;9.000;2023-06-26T12:34:25;4.03;;;3.63;;
33730;SDS011;22931;48.636;9.000;2023-06-26T12:44:59;5.93;;;3.60;;
33730;SDS011;22931;48.636;9.000;2023-06-26T12:50:55;9.43;;;3.60;;
33730;SDS011;22931;48.636;9.000;2023-06-26T12:56:36;4.88;;;3.42;;
33730;SDS011;22931;48.636;9.000;2023-06-26T13:02:03;4.03;;;3.63;;
33730;SDS011;22931;48.636;9.000;2023-06-26T13:07:49;4.03;;;3.53;;
33730;SDS011;22931;48.636;9.000;2023-06-26T13:13:09;4.03;;;3.53;;
33730;SDS011;22931;48.636;9.000;2023-06-26T13:24:35;4.47;;;3.47;;
33730;SDS011;22931;48.636;9.000;2023-06-26T13:29:55;4.22;;;3.75;;
33730;SDS011;22931;48.636;9.000;2023-06-26T13:35:26;4.22;;;3.58;;
33730;SDS011;22931;48.636;9.000;2023-06-26T14:21:38;6.20;;;3.67;;
33730;SDS011;22931;48.636;9.000;2023-06-26T14:39:17;4.53;;;2.67;;
33730;SDS011;22931;48.636;9.000;2023-06-26T14:45:06;3.28;;;2.78;;
33730;SDS011;22931;48.636;9.000;2023-06-26T14:50:34;2.58;;;2.20;;
33730;SDS011;22931;48.636;9.000;2023-06-26T15:07:19;3.00;;;2.40;;
33730;SDS011;22931;48.636;9.000;2023-06-26T15:12:36;5.40;;;2.70;;
33730;SDS011;22931;48.636;9.000;2023-06-26T15:18:02;3.13;;;2.00;;
33730;SDS011;22931;48.636;9.000;2023-06-26T15:23:40;3.03;;;2.17;;
33730;SDS011;22931;48.636;9.000;2023-06-26T20:03:02;2.22;;;0.80;;
33730;SDS011;22931;48.636;9.000;2023-06-26T20:08:21;1.88;;;0.70;;
33730;SDS011;22931;48.636;9.000;2023-06-26T20:13:42;5.55;;;1.10;;
33730;SDS011;22931;48.636;9.000;2023-06-26T20:19:47;1.95;;;0.80;;
33730;SDS011;22931;48.636;9.000;2023-06-26T20:25:25;1.98;;;0.80;;
33730;SDS011;22931;48.636;9.000;2023-06-26T20:30:47;1.02;;;0.70;;
33730;SDS011;22931;48.636;9.000;2023-06-26T20:36:20;6.57;;;1.20;;
33730;SDS011;22931;48.636;9.000;2023-06-26T20:47:56;2.17;;;0.73;;
33730;SDS011;22931;48.636;9.000;2023-06-26T21:17:46;1.60;;;0.80;;
33730;SDS011;22931;48.636;9.000;2023-06-26T21:22:58;1.20;;;0.60;;
33730;SDS011;22931;48.636;9.000;2023-06-26T21:28:08;0.85;;;0.60;;
33730;SDS011;22931;48.636;9.000;2023-06-26T21:33:30;1.77;;;0.88;;
33730;SDS011;22931;48.636;9.000;2023-06-26T21:44:48;3.63;;;0.95;;
33730;SDS011;22931;48.636;9.000;2023-06-26T21:50:08;0.82;;;0.73;;
33730;SDS011;22931;48.636;9.000;2023-06-26T21:55:25;1.38;;;0.90;;
33730;SDS011;22931;48.636;9.000;2023-06-26T22:00:49;1.95;;;0.77;;
33730;SDS011;22931;48.636;9.000;2023-06-26T22:06:06;2.38;;;0.93;;
33730;SDS011;22931;48.636;9.000;2023-06-26T22:12:07;1.60;;;0.63;;
33730;SDS011;22931;48.636;9.000;2023-06-26T22:17:46;1.25;;;0.80;;
33730;SDS011;22931;48.636;9.000;2023-06-26T22:23:08;0.85;;;0.70;;
33730;SDS011;22931;48.636;9.000;2023-06-26T22:28:28;0.93;;;0.90;;
